Terminal Aerodrome Forecast
Issued by NWS Pittsburgh, PA

Current Version | Previous Version | Graphics & Text | Print | Product List | Glossary On
Versions: 1 2 3 4 5 6 7 8 9 10 11 12 13 14 15 16 17 18 19 20 21 22 23 24 25
000
FTUS41 KPBZ 231700
TAFPIT
TAF
KPIT 231730Z 2318/2424 11007KT P6SM SCT020 BKN070
      TEMPO 2318/2321 BKN020 OVC070
     FM240500 13005KT 5SM -RA BR OVC015
     FM240800 12004KT 2SM -RA BR OVC008
     FM241400 13007KT 6SM BR BKN015
     FM242100 15010KT 6SM -SHRA VCTS OVC035CB=

USA.gov is the U.S. government's official web portal to all federal, state and local government web resources and services.